sensor_id;sensor_type;location;lat;lon;timestamp;temperature;humidity
21844;DHT22;11084;52.482;9.108;2022-08-19T00:01:52;18.90;99.90
21844;DHT22;11084;52.482;9.108;2022-08-19T00:04:26;18.90;99.90
21844;DHT22;11084;52.482;9.108;2022-08-19T00:06:54;18.90;99.90
21844;DHT22;11084;52.482;9.108;2022-08-19T00:09:22;18.90;99.90
21844;DHT22;11084;52.482;9.108;2022-08-19T00:11:50;18.90;99.90
21844;DHT22;11084;52.482;9.108;2022-08-19T00:14:17;18.90;99.90
21844;DHT22;11084;52.482;9.108;2022-08-19T00:16:46;19.00;99.90
21844;DHT22;11084;52.482;9.108;2022-08-19T00:19:14;18.90;99.90
21844;DHT22;11084;52.482;9.108;2022-08-19T00:21:41;18.90;99.90
21844;DHT22;11084;52.482;9.108;2022-08-19T00:24:09;18.90;99.90
21844;DHT22;11084;52.482;9.108;2022-08-19T00:26:37;18.90;99.90
21844;DHT22;11084;52.482;9.108;2022-08-19T00:29:06;18.90;99.90
21844;DHT22;11084;52.482;9.108;2022-08-19T00:31:33;18.80;99.90
21844;DHT22;11084;52.482;9.108;2022-08-19T00:33:59;18.80;99.90
21844;DHT22;11084;52.482;9.108;2022-08-19T00:36:25;18.90;99.90
21844;DHT22;11084;52.482;9.108;2022-08-19T00:38:51;18.90;99.90
21844;DHT22;11084;52.482;9.108;2022-08-19T00:41:19;18.90;99.90
21844;DHT22;11084;52.482;9.108;2022-08-19T00:46:31;18.90;99.90
21844;DHT22;11084;52.482;9.108;2022-08-19T00:49:00;18.80;99.90
21844;DHT22;11084;52.482;9.108;2022-08-19T00:51:29;18.80;99.90
21844;DHT22;11084;52.482;9.108;2022-08-19T00:53:58;18.80;99.90
21844;DHT22;11084;52.482;9.108;2022-08-19T00:56:26;18.80;99.90
21844;DHT22;11084;52.482;9.108;2022-08-19T00:58:55;16.90;99.90
21844;DHT22;11084;52.482;9.108;2022-08-19T01:01:22;18.70;99.90
21844;DHT22;11084;52.482;9.108;2022-08-19T01:03:48;18.70;99.90
21844;DHT22;11084;52.482;9.108;2022-08-19T01:06:14;18.70;99.90
21844;DHT22;11084;52.482;9.108;2022-08-19T01:08:40;18.60;99.90
21844;DHT22;11084;52.482;9.108;2022-08-19T01:11:07;18.60;99.90
21844;DHT22;11084;52.482;9.108;2022-08-19T01:13:36;18.60;99.90
21844;DHT22;11084;52.482;9.108;2022-08-19T01:16:08;18.60;99.90
21844;DHT22;11084;52.482;9.108;2022-08-19T01:18:41;18.50;99.90
21844;DHT22;11084;52.482;9.108;2022-08-19T01:23:51;18.40;99.90
21844;DHT22;11084;52.482;9.108;2022-08-19T01:26:21;18.40;99.90
21844;DHT22;11084;52.482;9.108;2022-08-19T01:28:51;18.40;99.90
21844;DHT22;11084;52.482;9.108;2022-08-19T01:31:22;18.30;99.90
21844;DHT22;11084;52.482;9.108;2022-08-19T01:33:51;18.30;99.90
21844;DHT22;11084;52.482;9.108;2022-08-19T01:38:52;18.10;99.90
21844;DHT22;11084;52.482;9.108;2022-08-19T01:41:19;18.10;99.90
21844;DHT22;11084;52.482;9.108;2022-08-19T01:43:45;18.10;99.90
21844;DHT22;11084;52.482;9.108;2022-08-19T01:46:11;18.00;99.90
21844;DHT22;11084;52.482;9.108;2022-08-19T01:48:41;18.00;99.90
21844;DHT22;11084;52.482;9.108;2022-08-19T01:51:10;18.00;99.90
21844;DHT22;11084;52.482;9.108;2022-08-19T01:53:37;17.90;99.90
21844;DHT22;11084;52.482;9.108;2022-08-19T01:56:04;17.80;99.90
21844;DHT22;11084;52.482;9.108;2022-08-19T01:58:40;17.80;99.90
21844;DHT22;11084;52.482;9.108;2022-08-19T02:01:07;17.70;99.90
21844;DHT22;11084;52.482;9.108;2022-08-19T02:03:34;17.70;99.90
21844;DHT22;11084;52.482;9.108;2022-08-19T02:06:03;17.70;99.90
21844;DHT22;11084;52.482;9.108;2022-08-19T02:08:32;17.60;99.90
21844;DHT22;11084;52.482;9.108;2022-08-19T02:11:00;17.60;99.90
21844;DHT22;11084;52.482;9.108;2022-08-19T02:13:27;17.50;99.90
21844;DHT22;11084;52.482;9.108;2022-08-19T02:15:53;17.50;99.90
21844;DHT22;11084;52.482;9.108;2022-08-19T02:18:19;17.50;99.90
21844;DHT22;11084;52.482;9.108;2022-08-19T02:20:46;17.40;99.90
21844;DHT22;11084;52.482;9.108;2022-08-19T02:23:15;17.30;99.90
21844;DHT22;11084;52.482;9.108;2022-08-19T02:25:44;17.30;99.90
21844;DHT22;11084;52.482;9.108;2022-08-19T02:28:12;17.30;99.90
21844;DHT22;11084;52.482;9.108;2022-08-19T02:30:40;17.20;99.90
21844;DHT22;11084;52.482;9.108;2022-08-19T02:33:07;17.20;99.90
21844;DHT22;11084;52.482;9.108;2022-08-19T02:35:33;17.10;99.90
21844;DHT22;11084;52.482;9.108;2022-08-19T02:37:59;17.10;99.90
21844;DHT22;11084;52.482;9.108;2022-08-19T02:40:55;17.00;99.90
21844;DHT22;11084;52.482;9.108;2022-08-19T02:43:27;17.00;99.90
21844;DHT22;11084;52.482;9.108;2022-08-19T02:45:54;17.00;99.90
21844;DHT22;11084;52.482;9.108;2022-08-19T02:48:22;17.00;99.90
21844;DHT22;11084;52.482;9.108;2022-08-19T02:50:51;16.90;99.90
21844;DHT22;11084;52.482;9.108;2022-08-19T02:53:26;16.90;99.90
21844;DHT22;11084;52.482;9.108;2022-08-19T02:58:20;16.80;99.90
21844;DHT22;11084;52.482;9.108;2022-08-19T03:00:52;16.80;99.90
21844;DHT22;11084;52.482;9.108;2022-08-19T03:03:20;16.80;99.90
21844;DHT22;11084;52.482;9.108;2022-08-19T03:05:46;16.70;99.90
21844;DHT22;11084;52.482;9.108;2022-08-19T03:08:13;16.70;99.90
21844;DHT22;11084;52.482;9.108;2022-08-19T03:10:45;16.60;99.90
21844;DHT22;11084;52.482;9.108;2022-08-19T03:13:14;16.60;99.90
21844;DHT22;11084;52.482;9.108;2022-08-19T03:15:44;16.60;99.90
21844;DHT22;11084;52.482;9.108;2022-08-19T03:18:11;16.60;99.90
21844;DHT22;11084;52.482;9.108;2022-08-19T03:20:46;16.50;99.90
21844;DHT22;11084;52.482;9.108;2022-08-19T03:23:14;16.50;99.90
21844;DHT22;11084;52.482;9.108;2022-08-19T03:25:44;16.50;99.90
21844;DHT22;11084;52.482;9.108;2022-08-19T03:28:13;16.40;99.90
21844;DHT22;11084;52.482;9.108;2022-08-19T03:30:42;16.40;99.90
21844;DHT22;11084;52.482;9.108;2022-08-19T03:33:10;16.40;99.90
21844;DHT22;11084;52.482;9.108;2022-08-19T03:35:40;16.40;99.90
21844;DHT22;11084;52.482;9.108;2022-08-19T03:38:06;16.40;99.90
21844;DHT22;11084;52.482;9.108;2022-08-19T03:40:36;16.30;99.90
21844;DHT22;11084;52.482;9.108;2022-08-19T03:43:02;16.30;99.90
21844;DHT22;11084;52.482;9.108;2022-08-19T03:45:29;16.30;99.90
21844;DHT22;11084;52.482;9.108;2022-08-19T03:47:55;16.30;99.90
21844;DHT22;11084;52.482;9.108;2022-08-19T03:50:21;16.20;99.90
21844;DHT22;11084;52.482;9.108;2022-08-19T03:52:51;16.20;99.90
21844;DHT22;11084;52.482;9.108;2022-08-19T03:55:18;16.10;99.90
21844;DHT22;11084;52.482;9.108;2022-08-19T03:57:45;16.20;99.90
21844;DHT22;11084;52.482;9.108;2022-08-19T04:00:13;16.20;99.90
21844;DHT22;11084;52.482;9.108;2022-08-19T04:02:41;16.10;99.90
21844;DHT22;11084;52.482;9.108;2022-08-19T04:05:07;16.10;99.90
21844;DHT22;11084;52.482;9.108;2022-08-19T04:07:33;16.00;99.90
21844;DHT22;11084;52.482;9.108;2022-08-19T04:09:59;16.00;99.90
21844;DHT22;11084;52.482;9.108;2022-08-19T04:12:25;16.10;99.90
21844;DHT22;11084;52.482;9.108;2022-08-19T04:14:52;16.00;99.90
21844;DHT22;11084;52.482;9.108;2022-08-19T04:17:18;16.00;99.90
21844;DHT22;11084;52.482;9.108;2022-08-19T04:19:44;15.90;99.90
21844;DHT22;11084;52.482;9.108;2022-08-19T04:22:10;15.90;99.90
21844;DHT22;11084;52.482;9.108;2022-08-19T04:24:37;15.90;99.90
21844;DHT22;11084;52.482;9.108;2022-08-19T04:27:03;15.90;99.90
21844;DHT22;11084;52.482;9.108;2022-08-19T04:29:32;15.90;99.90
21844;DHT22;11084;52.482;9.108;2022-08-19T04:31:59;15.90;99.90
21844;DHT22;11084;52.482;9.108;2022-08-19T04:34:26;15.80;99.90
21844;DHT22;11084;52.482;9.108;2022-08-19T04:36:55;15.80;99.90
21844;DHT22;11084;52.482;9.108;2022-08-19T04:39:25;15.90;99.90
21844;DHT22;11084;52.482;9.108;2022-08-19T04:42:14;15.90;99.90
21844;DHT22;11084;52.482;9.108;2022-08-19T04:45:13;15.80;99.90
21844;DHT22;11084;52.482;9.108;2022-08-19T04:47:41;15.80;99.90
21844;DHT22;11084;52.482;9.108;2022-08-19T04:50:10;15.80;99.90
21844;DHT22;11084;52.482;9.108;2022-08-19T04:52:37;15.80;99.90
21844;DHT22;11084;52.482;9.108;2022-08-19T04:55:10;15.80;99.90
21844;DHT22;11084;52.482;9.108;2022-08-19T04:57:36;15.80;99.90
21844;DHT22;11084;52.482;9.108;2022-08-19T05:00:07;15.80;99.90
21844;DHT22;11084;52.482;9.108;2022-08-19T05:02:34;15.90;99.90
21844;DHT22;11084;52.482;9.108;2022-08-19T05:05:00;15.80;99.90
21844;DHT22;11084;52.482;9.108;2022-08-19T05:07:27;15.90;99.90
21844;DHT22;11084;52.482;9.108;2022-08-19T05:09:53;15.90;99.90
21844;DHT22;11084;52.482;9.108;2022-08-19T05:12:19;15.90;99.90
21844;DHT22;11084;52.482;9.108;2022-08-19T05:14:46;15.90;99.90
21844;DHT22;11084;52.482;9.108;2022-08-19T05:17:13;16.00;99.90
21844;DHT22;11084;52.482;9.108;2022-08-19T05:19:40;16.00;99.90
21844;DHT22;11084;52.482;9.108;2022-08-19T05:22:24;16.10;99.90
21844;DHT22;11084;52.482;9.108;2022-08-19T05:25:08;16.20;99.90
21844;DHT22;11084;52.482;9.108;2022-08-19T05:27:36;16.30;99.90
21844;DHT22;11084;52.482;9.108;2022-08-19T05:30:03;16.40;99.90
21844;DHT22;11084;52.482;9.108;2022-08-19T05:32:30;16.40;99.90
21844;DHT22;11084;52.482;9.108;2022-08-19T05:34:56;16.80;99.90
21844;DHT22;11084;52.482;9.108;2022-08-19T05:37:23;16.80;99.90
21844;DHT22;11084;52.482;9.108;2022-08-19T05:39:52;17.10;99.90
21844;DHT22;11084;52.482;9.108;2022-08-19T05:42:20;17.40;99.90
21844;DHT22;11084;52.482;9.108;2022-08-19T05:44:47;17.40;99.90
21844;DHT22;11084;52.482;9.108;2022-08-19T05:47:15;17.90;99.90
21844;DHT22;11084;52.482;9.108;2022-08-19T05:49:42;17.90;99.90
21844;DHT22;11084;52.482;9.108;2022-08-19T05:52:12;18.10;99.90
21844;DHT22;11084;52.482;9.108;2022-08-19T05:54:40;18.40;99.90
21844;DHT22;11084;52.482;9.108;2022-08-19T05:57:08;18.40;99.90
21844;DHT22;11084;52.482;9.108;2022-08-19T05:59:35;18.50;99.90
21844;DHT22;11084;52.482;9.108;2022-08-19T06:02:03;18.50;99.90
21844;DHT22;11084;52.482;9.108;2022-08-19T06:04:29;18.50;99.90
21844;DHT22;11084;52.482;9.108;2022-08-19T06:06:55;18.50;99.90
21844;DHT22;11084;52.482;9.108;2022-08-19T06:09:22;18.80;99.90
21844;DHT22;11084;52.482;9.108;2022-08-19T06:11:55;18.90;99.90
21844;DHT22;11084;52.482;9.108;2022-08-19T06:14:28;19.80;99.90
21844;DHT22;11084;52.482;9.108;2022-08-19T06:16:56;20.40;99.90
21844;DHT22;11084;52.482;9.108;2022-08-19T06:21:52;21.40;99.90
21844;DHT22;11084;52.482;9.108;2022-08-19T06:24:22;21.90;99.90
21844;DHT22;11084;52.482;9.108;2022-08-19T06:26:50;22.30;99.90
21844;DHT22;11084;52.482;9.108;2022-08-19T06:29:20;22.50;99.90
21844;DHT22;11084;52.482;9.108;2022-08-19T06:31:55;22.50;99.90
21844;DHT22;11084;52.482;9.108;2022-08-19T06:34:22;22.50;99.90
21844;DHT22;11084;52.482;9.108;2022-08-19T06:36:50;22.50;99.90
21844;DHT22;11084;52.482;9.108;2022-08-19T06:39:20;22.60;99.90
21844;DHT22;11084;52.482;9.108;2022-08-19T06:41:51;22.80;99.90
21844;DHT22;11084;52.482;9.108;2022-08-19T06:44:20;23.20;99.90
21844;DHT22;11084;52.482;9.108;2022-08-19T06:46:47;23.30;99.90
21844;DHT22;11084;52.482;9.108;2022-08-19T06:49:16;23.40;99.90
21844;DHT22;11084;52.482;9.108;2022-08-19T06:51:44;23.20;99.90
21844;DHT22;11084;52.482;9.108;2022-08-19T06:54:13;23.00;99.90
21844;DHT22;11084;52.482;9.108;2022-08-19T06:56:39;23.00;99.90
21844;DHT22;11084;52.482;9.108;2022-08-19T06:59:09;22.70;99.90
21844;DHT22;11084;52.482;9.108;2022-08-19T07:01:46;22.60;99.90
21844;DHT22;11084;52.482;9.108;2022-08-19T07:04:16;22.50;99.90
21844;DHT22;11084;52.482;9.108;2022-08-19T07:06:45;22.50;99.90
21844;DHT22;11084;52.482;9.108;2022-08-19T07:09:17;22.30;99.90
21844;DHT22;11084;52.482;9.108;2022-08-19T07:11:48;22.40;99.90
21844;DHT22;11084;52.482;9.108;2022-08-19T07:14:17;22.20;99.90
21844;DHT22;11084;52.482;9.108;2022-08-19T07:16:49;22.10;99.90
21844;DHT22;11084;52.482;9.108;2022-08-19T07:19:17;22.00;99.90
21844;DHT22;11084;52.482;9.108;2022-08-19T07:21:50;22.00;99.90
21844;DHT22;11084;52.482;9.108;2022-08-19T07:24:19;21.90;99.90
21844;DHT22;11084;52.482;9.108;2022-08-19T07:26:50;22.00;99.90
21844;DHT22;11084;52.482;9.108;2022-08-19T07:29:21;21.90;99.90
21844;DHT22;11084;52.482;9.108;2022-08-19T07:31:50;21.90;99.90
21844;DHT22;11084;52.482;9.108;2022-08-19T07:34:17;21.90;99.90
21844;DHT22;11084;52.482;9.108;2022-08-19T07:36:45;21.90;99.90
21844;DHT22;11084;52.482;9.108;2022-08-19T07:39:20;21.90;99.90
21844;DHT22;11084;52.482;9.108;2022-08-19T07:41:49;21.80;99.90
21844;DHT22;11084;52.482;9.108;2022-08-19T07:44:17;21.80;99.90
21844;DHT22;11084;52.482;9.108;2022-08-19T07:46:47;21.70;99.90
21844;DHT22;11084;52.482;9.108;2022-08-19T07:49:16;21.70;99.90
21844;DHT22;11084;52.482;9.108;2022-08-19T07:51:50;21.70;99.90
21844;DHT22;11084;52.482;9.108;2022-08-19T07:54:26;21.70;99.90
21844;DHT22;11084;52.482;9.108;2022-08-19T07:59:23;21.70;99.90
21844;DHT22;11084;52.482;9.108;2022-08-19T08:01:50;21.60;99.90
21844;DHT22;11084;52.482;9.108;2022-08-19T08:04:17;21.70;99.90
21844;DHT22;11084;52.482;9.108;2022-08-19T08:07:03;21.70;99.90
21844;DHT22;11084;52.482;9.108;2022-08-19T08:09:49;21.70;99.90
21844;DHT22;11084;52.482;9.108;2022-08-19T08:12:24;21.70;99.90
21844;DHT22;11084;52.482;9.108;2022-08-19T08:15:04;21.80;99.90
21844;DHT22;11084;52.482;9.108;2022-08-19T08:17:33;21.70;99.90
21844;DHT22;11084;52.482;9.108;2022-08-19T08:22:26;22.10;99.90
21844;DHT22;11084;52.482;9.108;2022-08-19T08:25:15;22.10;99.90
21844;DHT22;11084;52.482;9.108;2022-08-19T08:27:44;22.40;99.90
21844;DHT22;11084;52.482;9.108;2022-08-19T08:30:20;22.50;99.90
21844;DHT22;11084;52.482;9.108;2022-08-19T08:32:49;22.60;99.90
21844;DHT22;11084;52.482;9.108;2022-08-19T08:35:18;23.00;99.90
21844;DHT22;11084;52.482;9.108;2022-08-19T08:37:47;23.40;99.90
21844;DHT22;11084;52.482;9.108;2022-08-19T08:45:55;23.50;99.90
21844;DHT22;11084;52.482;9.108;2022-08-19T08:51:10;23.70;99.90
21844;DHT22;11084;52.482;9.108;2022-08-19T08:53:41;23.80;99.90
21844;DHT22;11084;52.482;9.108;2022-08-19T08:56:09;22.90;99.90
21844;DHT22;11084;52.482;9.108;2022-08-19T09:01:24;25.20;99.90
21844;DHT22;11084;52.482;9.108;2022-08-19T09:03:50;25.60;99.90
21844;DHT22;11084;52.482;9.108;2022-08-19T09:09:23;25.90;99.90
21844;DHT22;11084;52.482;9.108;2022-08-19T09:15:00;26.40;99.90
21844;DHT22;11084;52.482;9.108;2022-08-19T09:17:30;26.50;99.80
21844;DHT22;11084;52.482;9.108;2022-08-19T09:20:03;26.50;99.90
21844;DHT22;11084;52.482;9.108;2022-08-19T09:22:35;27.10;98.80
21844;DHT22;11084;52.482;9.108;2022-08-19T09:25:07;27.50;97.90
21844;DHT22;11084;52.482;9.108;2022-08-19T09:27:36;27.80;96.60
21844;DHT22;11084;52.482;9.108;2022-08-19T09:30:05;27.80;96.40
21844;DHT22;11084;52.482;9.108;2022-08-19T09:32:33;28.10;95.00
21844;DHT22;11084;52.482;9.108;2022-08-19T09:37:27;28.10;94.40
21844;DHT22;11084;52.482;9.108;2022-08-19T09:39:53;28.10;93.70
21844;DHT22;11084;52.482;9.108;2022-08-19T09:42:20;28.20;93.50
21844;DHT22;11084;52.482;9.108;2022-08-19T09:44:46;28.10;91.70
21844;DHT22;11084;52.482;9.108;2022-08-19T09:47:13;28.10;92.60
21844;DHT22;11084;52.482;9.108;2022-08-19T09:49:41;28.20;92.40
21844;DHT22;11084;52.482;9.108;2022-08-19T09:52:10;28.20;92.60
21844;DHT22;11084;52.482;9.108;2022-08-19T09:54:38;28.30;92.00
21844;DHT22;11084;52.482;9.108;2022-08-19T09:57:05;28.40;92.10
21844;DHT22;11084;52.482;9.108;2022-08-19T09:59:32;28.30;90.80
21844;DHT22;11084;52.482;9.108;2022-08-19T10:01:58;28.30;90.60
21844;DHT22;11084;52.482;9.108;2022-08-19T10:04:24;28.40;90.70
21844;DHT22;11084;52.482;9.108;2022-08-19T10:07:11;28.50;90.40
21844;DHT22;11084;52.482;9.108;2022-08-19T10:09:39;28.50;89.40
21844;DHT22;11084;52.482;9.108;2022-08-19T10:12:08;28.60;88.40
21844;DHT22;11084;52.482;9.108;2022-08-19T10:14:34;28.90;88.10
21844;DHT22;11084;52.482;9.108;2022-08-19T10:17:01;29.10;87.90
21844;DHT22;11084;52.482;9.108;2022-08-19T10:19:28;29.20;85.20
21844;DHT22;11084;52.482;9.108;2022-08-19T10:22:03;29.30;82.50
21844;DHT22;11084;52.482;9.108;2022-08-19T10:24:31;29.40;83.10
21844;DHT22;11084;52.482;9.108;2022-08-19T10:26:57;29.60;83.00
21844;DHT22;11084;52.482;9.108;2022-08-19T10:29:23;29.60;80.90
21844;DHT22;11084;52.482;9.108;2022-08-19T10:31:49;29.70;80.40
21844;DHT22;11084;52.482;9.108;2022-08-19T10:34:15;29.80;80.50
21844;DHT22;11084;52.482;9.108;2022-08-19T10:36:43;29.90;79.10
21844;DHT22;11084;52.482;9.108;2022-08-19T10:39:09;30.20;75.90
21844;DHT22;11084;52.482;9.108;2022-08-19T10:41:38;30.20;74.40
21844;DHT22;11084;52.482;9.108;2022-08-19T10:44:10;30.20;74.90
21844;DHT22;11084;52.482;9.108;2022-08-19T10:49:11;29.90;71.00
21844;DHT22;11084;52.482;9.108;2022-08-19T10:51:38;29.70;73.20
21844;DHT22;11084;52.482;9.108;2022-08-19T10:54:23;29.70;71.00
21844;DHT22;11084;52.482;9.108;2022-08-19T10:57:10;29.80;70.20
21844;DHT22;11084;52.482;9.108;2022-08-19T10:59:36;30.00;73.10
21844;DHT22;11084;52.482;9.108;2022-08-19T11:02:05;30.20;72.00
21844;DHT22;11084;52.482;9.108;2022-08-19T11:04:33;30.10;67.90
21844;DHT22;11084;52.482;9.108;2022-08-19T11:06:59;30.10;71.40
21844;DHT22;11084;52.482;9.108;2022-08-19T11:09:25;30.30;70.80
21844;DHT22;11084;52.482;9.108;2022-08-19T11:11:53;30.30;71.30
21844;DHT22;11084;52.482;9.108;2022-08-19T11:14:20;30.30;70.00
21844;DHT22;11084;52.482;9.108;2022-08-19T11:16:48;30.50;69.70
21844;DHT22;11084;52.482;9.108;2022-08-19T11:19:15;30.50;70.30
21844;DHT22;11084;52.482;9.108;2022-08-19T11:21:46;30.70;65.20
21844;DHT22;11084;52.482;9.108;2022-08-19T11:24:17;30.90;65.60
21844;DHT22;11084;52.482;9.108;2022-08-19T11:26:47;30.90;66.10
21844;DHT22;11084;52.482;9.108;2022-08-19T11:29:19;30.90;65.10
21844;DHT22;11084;52.482;9.108;2022-08-19T11:31:49;30.80;62.40
21844;DHT22;11084;52.482;9.108;2022-08-19T11:34:19;30.90;63.30
21844;DHT22;11084;52.482;9.108;2022-08-19T11:36:47;30.90;63.40
21844;DHT22;11084;52.482;9.108;2022-08-19T11:39:16;31.00;63.50
21844;DHT22;11084;52.482;9.108;2022-08-19T11:41:43;31.10;61.80
21844;DHT22;11084;52.482;9.108;2022-08-19T11:44:09;31.20;62.30
21844;DHT22;11084;52.482;9.108;2022-08-19T11:46:37;31.10;58.10
21844;DHT22;11084;52.482;9.108;2022-08-19T11:49:05;31.30;60.10
21844;DHT22;11084;52.482;9.108;2022-08-19T11:51:35;31.30;60.10
21844;DHT22;11084;52.482;9.108;2022-08-19T11:54:03;31.50;60.10
21844;DHT22;11084;52.482;9.108;2022-08-19T11:56:30;31.80;59.60
21844;DHT22;11084;52.482;9.108;2022-08-19T12:01:24;32.10;58.50
21844;DHT22;11084;52.482;9.108;2022-08-19T12:03:53;32.10;58.80
21844;DHT22;11084;52.482;9.108;2022-08-19T12:06:23;32.00;57.20
21844;DHT22;11084;52.482;9.108;2022-08-19T12:09:02;32.00;57.30
21844;DHT22;11084;52.482;9.108;2022-08-19T12:11:31;32.20;57.70
21844;DHT22;11084;52.482;9.108;2022-08-19T12:13:57;32.30;56.70
21844;DHT22;11084;52.482;9.108;2022-08-19T12:16:26;32.40;56.40
21844;DHT22;11084;52.482;9.108;2022-08-19T12:18:54;32.40;56.80
21844;DHT22;11084;52.482;9.108;2022-08-19T12:21:24;32.50;54.20
21844;DHT22;11084;52.482;9.108;2022-08-19T12:23:55;32.50;54.70
21844;DHT22;11084;52.482;9.108;2022-08-19T12:26:23;32.60;55.50
21844;DHT22;11084;52.482;9.108;2022-08-19T12:28:50;32.50;54.50
21844;DHT22;11084;52.482;9.108;2022-08-19T12:31:17;32.60;54.80
21844;DHT22;11084;52.482;9.108;2022-08-19T12:33:45;32.50;54.80
21844;DHT22;11084;52.482;9.108;2022-08-19T12:36:16;32.60;55.30
21844;DHT22;11084;52.482;9.108;2022-08-19T12:38:43;32.60;54.30
21844;DHT22;11084;52.482;9.108;2022-08-19T12:41:14;32.60;53.20
21844;DHT22;11084;52.482;9.108;2022-08-19T12:43:43;32.60;53.90
21844;DHT22;11084;52.482;9.108;2022-08-19T12:46:10;32.70;54.10
21844;DHT22;11084;52.482;9.108;2022-08-19T12:48:38;32.70;54.20
21844;DHT22;11084;52.482;9.108;2022-08-19T12:51:10;32.70;53.80
21844;DHT22;11084;52.482;9.108;2022-08-19T12:53:39;32.70;53.20
21844;DHT22;11084;52.482;9.108;2022-08-19T12:56:05;32.90;52.90
21844;DHT22;11084;52.482;9.108;2022-08-19T12:58:32;32.90;53.40
21844;DHT22;11084;52.482;9.108;2022-08-19T13:01:10;32.80;52.80
21844;DHT22;11084;52.482;9.108;2022-08-19T13:03:37;32.60;52.70
21844;DHT22;11084;52.482;9.108;2022-08-19T13:06:03;32.70;53.20
21844;DHT22;11084;52.482;9.108;2022-08-19T13:08:30;32.60;51.90
21844;DHT22;11084;52.482;9.108;2022-08-19T13:10:56;32.80;53.00
21844;DHT22;11084;52.482;9.108;2022-08-19T13:13:24;32.80;50.90
21844;DHT22;11084;52.482;9.108;2022-08-19T13:15:51;32.90;52.50
21844;DHT22;11084;52.482;9.108;2022-08-19T13:18:17;32.70;52.00
21844;DHT22;11084;52.482;9.108;2022-08-19T13:20:43;32.80;52.40
21844;DHT22;11084;52.482;9.108;2022-08-19T13:23:10;32.60;51.80
21844;DHT22;11084;52.482;9.108;2022-08-19T13:25:36;32.70;52.40
21844;DHT22;11084;52.482;9.108;2022-08-19T13:28:03;32.70;52.50
21844;DHT22;11084;52.482;9.108;2022-08-19T13:30:32;32.50;52.30
21844;DHT22;11084;52.482;9.108;2022-08-19T13:33:18;32.40;52.00
21844;DHT22;11084;52.482;9.108;2022-08-19T13:38:13;32.50;52.30
21844;DHT22;11084;52.482;9.108;2022-08-19T13:40:44;32.40;52.20
21844;DHT22;11084;52.482;9.108;2022-08-19T13:43:11;32.30;52.20
21844;DHT22;11084;52.482;9.108;2022-08-19T13:45:37;32.30;52.70
21844;DHT22;11084;52.482;9.108;2022-08-19T13:48:05;32.40;52.30
21844;DHT22;11084;52.482;9.108;2022-08-19T13:50:34;32.50;52.70
21844;DHT22;11084;52.482;9.108;2022-08-19T13:53:04;32.40;52.20
21844;DHT22;11084;52.482;9.108;2022-08-19T13:55:30;32.30;52.10
21844;DHT22;11084;52.482;9.108;2022-08-19T13:57:58;32.30;52.00
21844;DHT22;11084;52.482;9.108;2022-08-19T14:00:30;32.30;52.50
21844;DHT22;11084;52.482;9.108;2022-08-19T14:03:02;32.20;52.30
21844;DHT22;11084;52.482;9.108;2022-08-19T14:05:29;32.20;52.90
21844;DHT22;11084;52.482;9.108;2022-08-19T14:07:57;32.20;52.90
21844;DHT22;11084;52.482;9.108;2022-08-19T14:10:25;32.20;52.60
21844;DHT22;11084;52.482;9.108;2022-08-19T14:12:56;32.20;53.00
21844;DHT22;11084;52.482;9.108;2022-08-19T14:15:24;32.10;52.90
21844;DHT22;11084;52.482;9.108;2022-08-19T14:17:51;32.20;53.20
21844;DHT22;11084;52.482;9.108;2022-08-19T14:20:17;32.20;52.60
21844;DHT22;11084;52.482;9.108;2022-08-19T14:22:45;32.10;52.50
21844;DHT22;11084;52.482;9.108;2022-08-19T14:25:18;32.00;52.50
21844;DHT22;11084;52.482;9.108;2022-08-19T14:27:46;32.00;52.20
21844;DHT22;11084;52.482;9.108;2022-08-19T14:30:17;32.10;52.40
21844;DHT22;11084;52.482;9.108;2022-08-19T14:32:46;32.10;52.40
21844;DHT22;11084;52.482;9.108;2022-08-19T14:35:13;32.10;52.30
21844;DHT22;11084;52.482;9.108;2022-08-19T14:37:41;32.20;53.00
21844;DHT22;11084;52.482;9.108;2022-08-19T14:40:08;32.00;52.90
21844;DHT22;11084;52.482;9.108;2022-08-19T14:42:35;32.00;52.20
21844;DHT22;11084;52.482;9.108;2022-08-19T14:45:02;32.10;52.90
21844;DHT22;11084;52.482;9.108;2022-08-19T14:47:31;32.10;53.30
21844;DHT22;11084;52.482;9.108;2022-08-19T14:49:57;32.10;53.20
21844;DHT22;11084;52.482;9.108;2022-08-19T14:52:23;31.90;51.90
21844;DHT22;11084;52.482;9.108;2022-08-19T14:54:48;31.90;52.40
21844;DHT22;11084;52.482;9.108;2022-08-19T14:57:15;31.80;51.70
21844;DHT22;11084;52.482;9.108;2022-08-19T14:59:42;31.80;52.00
21844;DHT22;11084;52.482;9.108;2022-08-19T15:02:09;31.80;52.60
21844;DHT22;11084;52.482;9.108;2022-08-19T15:04:36;31.70;51.90
21844;DHT22;11084;52.482;9.108;2022-08-19T15:07:03;31.70;52.40
21844;DHT22;11084;52.482;9.108;2022-08-19T15:09:31;31.70;52.40
21844;DHT22;11084;52.482;9.108;2022-08-19T15:11:57;31.60;52.20
21844;DHT22;11084;52.482;9.108;2022-08-19T15:14:28;31.70;51.50
21844;DHT22;11084;52.482;9.108;2022-08-19T15:17:02;31.70;52.40
21844;DHT22;11084;52.482;9.108;2022-08-19T15:19:30;31.70;51.50
21844;DHT22;11084;52.482;9.108;2022-08-19T15:21:57;31.70;52.00
21844;DHT22;11084;52.482;9.108;2022-08-19T15:24:23;31.60;51.70
21844;DHT22;11084;52.482;9.108;2022-08-19T15:26:52;31.60;51.90
21844;DHT22;11084;52.482;9.108;2022-08-19T15:29:19;31.60;52.40
21844;DHT22;11084;52.482;9.108;2022-08-19T15:31:45;31.40;51.60
21844;DHT22;11084;52.482;9.108;2022-08-19T15:34:11;31.30;51.90
21844;DHT22;11084;52.482;9.108;2022-08-19T15:36:37;31.20;52.00
21844;DHT22;11084;52.482;9.108;2022-08-19T15:39:04;31.10;51.90
21844;DHT22;11084;52.482;9.108;2022-08-19T15:41:31;31.10;52.40
21844;DHT22;11084;52.482;9.108;2022-08-19T15:44:08;30.90;51.60
21844;DHT22;11084;52.482;9.108;2022-08-19T15:46:38;30.90;52.10
21844;DHT22;11084;52.482;9.108;2022-08-19T15:49:06;30.90;52.50
21844;DHT22;11084;52.482;9.108;2022-08-19T15:51:34;30.80;52.00
21844;DHT22;11084;52.482;9.108;2022-08-19T15:54:03;30.80;52.60
21844;DHT22;11084;52.482;9.108;2022-08-19T15:56:30;30.70;51.70
21844;DHT22;11084;52.482;9.108;2022-08-19T15:59:16;30.70;52.30
21844;DHT22;11084;52.482;9.108;2022-08-19T16:02:07;30.40;52.10
21844;DHT22;11084;52.482;9.108;2022-08-19T16:04:52;30.40;53.10
21844;DHT22;11084;52.482;9.108;2022-08-19T16:07:37;30.10;52.80
21844;DHT22;11084;52.482;9.108;2022-08-19T16:10:04;30.10;53.50
21844;DHT22;11084;52.482;9.108;2022-08-19T16:12:31;29.90;53.30
21844;DHT22;11084;52.482;9.108;2022-08-19T16:14:57;29.90;53.80
21844;DHT22;11084;52.482;9.108;2022-08-19T16:17:23;29.90;53.80
21844;DHT22;11084;52.482;9.108;2022-08-19T16:19:50;29.70;53.60
21844;DHT22;11084;52.482;9.108;2022-08-19T16:22:16;29.60;54.00
21844;DHT22;11084;52.482;9.108;2022-08-19T16:24:43;29.40;53.80
21844;DHT22;11084;52.482;9.108;2022-08-19T16:29:35;29.30;53.90